sensor_id;sensor_type;location;lat;lon;timestamp;temperature;humidity
4647;DHT22;2336;47.822;7.564;2022-12-05T04:32:43;4.20;99.90
4647;DHT22;2336;47.822;7.564;2022-12-05T04:35:16;4.20;99.90
4647;DHT22;2336;47.822;7.564;2022-12-05T04:37:48;4.20;99.90
4647;DHT22;2336;47.822;7.564;2022-12-05T04:40:20;4.30;99.90
4647;DHT22;2336;47.822;7.564;2022-12-05T04:42:50;4.30;99.90
4647;DHT22;2336;47.822;7.564;2022-12-05T04:45:19;4.30;99.90
4647;DHT22;2336;47.822;7.564;2022-12-05T04:47:52;4.30;99.90
4647;DHT22;2336;47.822;7.564;2022-12-05T04:50:23;4.30;99.90
4647;DHT22;2336;47.822;7.564;2022-12-05T04:52:53;4.30;99.90
4647;DHT22;2336;47.822;7.564;2022-12-05T04:55:22;4.30;99.90
4647;DHT22;2336;47.822;7.564;2022-12-05T04:57:56;4.30;99.90
4647;DHT22;2336;47.822;7.564;2022-12-05T05:00:28;4.40;99.90
4647;DHT22;2336;47.822;7.564;2022-12-05T05:03:00;4.30;99.90
4647;DHT22;2336;47.822;7.564;2022-12-05T05:05:30;4.40;99.90
4647;DHT22;2336;47.822;7.564;2022-12-05T05:07:58;4.40;99.90
4647;DHT22;2336;47.822;7.564;2022-12-05T05:10:30;4.40;99.90
4647;DHT22;2336;47.822;7.564;2022-12-05T05:12:58;4.40;99.90
4647;DHT22;2336;47.822;7.564;2022-12-05T05:15:25;4.40;99.90
4647;DHT22;2336;47.822;7.564;2022-12-05T05:17:51;4.40;99.90
4647;DHT22;2336;47.822;7.564;2022-12-05T05:20:20;4.40;99.90
4647;DHT22;2336;47.822;7.564;2022-12-05T05:22:50;4.50;99.90
4647;DHT22;2336;47.822;7.564;2022-12-05T05:25:17;4.50;99.90
4647;DHT22;2336;47.822;7.564;2022-12-05T05:27:47;4.50;99.90
4647;DHT22;2336;47.822;7.564;2022-12-05T05:30:15;4.50;99.90
4647;DHT22;2336;47.822;7.564;2022-12-05T05:32:42;4.50;99.90
4647;DHT22;2336;47.822;7.564;2022-12-05T05:35:10;4.50;99.90
4647;DHT22;2336;47.822;7.564;2022-12-05T05:37:39;4.60;99.90
4647;DHT22;2336;47.822;7.564;2022-12-05T05:40:07;4.60;99.90
4647;DHT22;2336;47.822;7.564;2022-12-05T05:42:35;4.60;99.90
4647;DHT22;2336;47.822;7.564;2022-12-05T05:45:02;4.60;99.90
4647;DHT22;2336;47.822;7.564;2022-12-05T05:47:29;4.60;99.90
4647;DHT22;2336;47.822;7.564;2022-12-05T05:49:56;4.60;99.90
4647;DHT22;2336;47.822;7.564;2022-12-05T05:52:22;4.60;99.90
4647;DHT22;2336;47.822;7.564;2022-12-05T05:54:51;4.60;99.90
4647;DHT22;2336;47.822;7.564;2022-12-05T15:33:50;5.90;99.90
4647;DHT22;2336;47.822;7.564;2022-12-05T15:36:18;5.90;99.90
4647;DHT22;2336;47.822;7.564;2022-12-05T15:38:47;5.90;99.90
4647;DHT22;2336;47.822;7.564;2022-12-05T15:41:15;5.90;99.90
4647;DHT22;2336;47.822;7.564;2022-12-05T15:43:55;5.90;99.90
4647;DHT22;2336;47.822;7.564;2022-12-05T15:46:24;5.90;99.90
4647;DHT22;2336;47.822;7.564;2022-12-05T15:48:54;5.90;99.90
4647;DHT22;2336;47.822;7.564;2022-12-05T15:51:25;5.90;99.90
4647;DHT22;2336;47.822;7.564;2022-12-05T15:53:55;5.90;99.90
4647;DHT22;2336;47.822;7.564;2022-12-05T15:56:27;5.90;99.90
4647;DHT22;2336;47.822;7.564;2022-12-05T15:58:57;5.80;99.90
4647;DHT22;2336;47.822;7.564;2022-12-05T16:01:27;5.80;99.90
4647;DHT22;2336;47.822;7.564;2022-12-05T16:03:58;5.80;99.90
4647;DHT22;2336;47.822;7.564;2022-12-05T16:06:30;5.90;99.90
4647;DHT22;2336;47.822;7.564;2022-12-05T16:08:58;5.80;99.90
4647;DHT22;2336;47.822;7.564;2022-12-05T16:11:26;5.80;99.90
4647;DHT22;2336;47.822;7.564;2022-12-05T16:13:55;5.80;99.90
4647;DHT22;2336;47.822;7.564;2022-12-05T16:16:26;5.70;99.90
4647;DHT22;2336;47.822;7.564;2022-12-05T16:18:54;5.70;99.90
4647;DHT22;2336;47.822;7.564;2022-12-05T16:21:29;5.70;99.90
4647;DHT22;2336;47.822;7.564;2022-12-05T16:24:05;5.60;99.90
4647;DHT22;2336;47.822;7.564;2022-12-05T16:26:36;5.60;99.90
4647;DHT22;2336;47.822;7.564;2022-12-05T16:29:04;5.50;99.90
4647;DHT22;2336;47.822;7.564;2022-12-05T16:31:33;5.50;99.90
4647;DHT22;2336;47.822;7.564;2022-12-05T16:34:02;5.40;99.90
4647;DHT22;2336;47.822;7.564;2022-12-05T16:36:31;5.40;99.90
4647;DHT22;2336;47.822;7.564;2022-12-05T16:39:02;5.30;99.90
4647;DHT22;2336;47.822;7.564;2022-12-05T16:41:33;5.30;99.90
4647;DHT22;2336;47.822;7.564;2022-12-05T16:44:01;5.20;99.90
4647;DHT22;2336;47.822;7.564;2022-12-05T16:46:44;5.20;99.90
4647;DHT22;2336;47.822;7.564;2022-12-05T16:49:16;5.20;99.90
4647;DHT22;2336;47.822;7.564;2022-12-05T16:51:53;5.20;99.90
4647;DHT22;2336;47.822;7.564;2022-12-05T16:54:22;5.10;99.90
4647;DHT22;2336;47.822;7.564;2022-12-05T16:56:49;5.10;99.90
4647;DHT22;2336;47.822;7.564;2022-12-05T16:59:21;5.10;99.90
4647;DHT22;2336;47.822;7.564;2022-12-05T17:01:48;5.10;99.90
4647;DHT22;2336;47.822;7.564;2022-12-05T17:04:15;5.00;99.90
4647;DHT22;2336;47.822;7.564;2022-12-05T17:06:41;4.90;99.90
4647;DHT22;2336;47.822;7.564;2022-12-05T17:09:10;4.90;99.90
4647;DHT22;2336;47.822;7.564;2022-12-05T17:11:40;4.80;99.90
4647;DHT22;2336;47.822;7.564;2022-12-05T17:14:11;4.80;99.90
4647;DHT22;2336;47.822;7.564;2022-12-05T17:16:39;4.70;99.90
4647;DHT22;2336;47.822;7.564;2022-12-05T17:19:06;4.70;99.90
4647;DHT22;2336;47.822;7.564;2022-12-05T17:21:33;4.70;99.90
4647;DHT22;2336;47.822;7.564;2022-12-05T17:24:00;4.60;99.90
4647;DHT22;2336;47.822;7.564;2022-12-05T17:26:28;4.60;99.90
4647;DHT22;2336;47.822;7.564;2022-12-05T17:28:55;4.50;99.90
4647;DHT22;2336;47.822;7.564;2022-12-05T17:31:23;4.50;99.90
4647;DHT22;2336;47.822;7.564;2022-12-05T17:33:52;4.50;99.90
4647;DHT22;2336;47.822;7.564;2022-12-05T17:36:19;4.50;99.90
4647;DHT22;2336;47.822;7.564;2022-12-05T17:38:46;4.50;99.90
4647;DHT22;2336;47.822;7.564;2022-12-05T17:41:14;4.50;99.90
4647;DHT22;2336;47.822;7.564;2022-12-05T17:43:43;4.50;99.90
4647;DHT22;2336;47.822;7.564;2022-12-05T17:46:12;4.60;99.90
4647;DHT22;2336;47.822;7.564;2022-12-05T17:48:40;4.50;99.90
4647;DHT22;2336;47.822;7.564;2022-12-05T17:51:08;4.50;99.90
4647;DHT22;2336;47.822;7.564;2022-12-05T17:53:36;4.50;99.90
4647;DHT22;2336;47.822;7.564;2022-12-05T17:56:03;4.50;99.90
4647;DHT22;2336;47.822;7.564;2022-12-05T17:58:30;4.50;99.90
4647;DHT22;2336;47.822;7.564;2022-12-05T18:00:59;4.50;99.90
4647;DHT22;2336;47.822;7.564;2022-12-05T18:03:27;4.40;99.90
4647;DHT22;2336;47.822;7.564;2022-12-05T18:05:54;4.40;99.90
4647;DHT22;2336;47.822;7.564;2022-12-05T18:08:21;4.40;99.90
4647;DHT22;2336;47.822;7.564;2022-12-05T18:10:48;4.40;99.90
4647;DHT22;2336;47.822;7.564;2022-12-05T18:13:16;4.40;99.90
4647;DHT22;2336;47.822;7.564;2022-12-05T18:15:45;4.30;99.90
4647;DHT22;2336;47.822;7.564;2022-12-05T18:18:15;4.30;99.90
4647;DHT22;2336;47.822;7.564;2022-12-05T18:20:42;4.20;99.90
4647;DHT22;2336;47.822;7.564;2022-12-05T18:23:09;4.20;99.90
4647;DHT22;2336;47.822;7.564;2022-12-05T18:25:36;4.20;99.90
4647;DHT22;2336;47.822;7.564;2022-12-05T18:28:03;4.10;99.90
4647;DHT22;2336;47.822;7.564;2022-12-05T18:30:29;4.10;99.90
4647;DHT22;2336;47.822;7.564;2022-12-05T18:32:56;4.10;99.90
4647;DHT22;2336;47.822;7.564;2022-12-05T18:35:24;4.10;99.90
4647;DHT22;2336;47.822;7.564;2022-12-05T18:38:05;4.10;99.90
4647;DHT22;2336;47.822;7.564;2022-12-05T18:40:33;4.10;99.90
4647;DHT22;2336;47.822;7.564;2022-12-05T18:43:00;4.10;99.90
4647;DHT22;2336;47.822;7.564;2022-12-05T18:45:26;4.10;99.90
4647;DHT22;2336;47.822;7.564;2022-12-05T18:47:53;4.00;99.90
4647;DHT22;2336;47.822;7.564;2022-12-05T18:50:20;4.10;99.90
4647;DHT22;2336;47.822;7.564;2022-12-05T18:52:48;4.10;99.90
4647;DHT22;2336;47.822;7.564;2022-12-05T18:55:15;4.10;99.90
4647;DHT22;2336;47.822;7.564;2022-12-05T18:57:42;4.10;99.90
4647;DHT22;2336;47.822;7.564;2022-12-05T19:00:10;4.10;99.90
4647;DHT22;2336;47.822;7.564;2022-12-05T19:02:37;4.10;99.90
4647;DHT22;2336;47.822;7.564;2022-12-05T19:05:04;4.10;99.90
4647;DHT22;2336;47.822;7.564;2022-12-05T19:07:31;4.10;99.90
4647;DHT22;2336;47.822;7.564;2022-12-05T19:09:59;4.00;99.90
4647;DHT22;2336;47.822;7.564;2022-12-05T19:12:26;4.00;99.90
4647;DHT22;2336;47.822;7.564;2022-12-05T19:14:52;3.90;99.90
4647;DHT22;2336;47.822;7.564;2022-12-05T19:17:19;3.90;99.90
4647;DHT22;2336;47.822;7.564;2022-12-05T19:19:47;3.80;99.90
4647;DHT22;2336;47.822;7.564;2022-12-05T19:22:13;3.80;99.90
4647;DHT22;2336;47.822;7.564;2022-12-05T19:24:40;3.80;99.90
4647;DHT22;2336;47.822;7.564;2022-12-05T19:27:08;3.80;99.90
4647;DHT22;2336;47.822;7.564;2022-12-05T19:29:35;3.80;99.90
4647;DHT22;2336;47.822;7.564;2022-12-05T19:32:02;3.80;99.90
4647;DHT22;2336;47.822;7.564;2022-12-05T19:34:29;3.80;99.90
4647;DHT22;2336;47.822;7.564;2022-12-05T19:36:56;3.80;99.90
4647;DHT22;2336;47.822;7.564;2022-12-05T19:39:23;3.70;99.90
4647;DHT22;2336;47.822;7.564;2022-12-05T19:41:50;3.60;99.90
4647;DHT22;2336;47.822;7.564;2022-12-05T19:44:20;3.60;99.90
4647;DHT22;2336;47.822;7.564;2022-12-05T19:46:48;3.60;99.90
4647;DHT22;2336;47.822;7.564;2022-12-05T19:49:15;3.50;99.90
4647;DHT22;2336;47.822;7.564;2022-12-05T19:51:43;3.40;99.90
4647;DHT22;2336;47.822;7.564;2022-12-05T19:54:12;3.40;99.90
4647;DHT22;2336;47.822;7.564;2022-12-05T19:56:42;3.30;99.90
4647;DHT22;2336;47.822;7.564;2022-12-05T19:59:12;3.30;99.90
4647;DHT22;2336;47.822;7.564;2022-12-05T20:01:40;3.40;99.90
4647;DHT22;2336;47.822;7.564;2022-12-05T20:04:09;3.40;99.90
4647;DHT22;2336;47.822;7.564;2022-12-05T20:06:38;3.40;99.90
4647;DHT22;2336;47.822;7.564;2022-12-05T20:09:08;3.30;99.90
4647;DHT22;2336;47.822;7.564;2022-12-05T20:11:37;3.30;99.90
4647;DHT22;2336;47.822;7.564;2022-12-05T20:14:04;3.40;99.90
4647;DHT22;2336;47.822;7.564;2022-12-05T20:16:32;3.40;99.90
4647;DHT22;2336;47.822;7.564;2022-12-05T20:19:01;3.40;99.90
4647;DHT22;2336;47.822;7.564;2022-12-05T20:21:30;3.40;99.90
4647;DHT22;2336;47.822;7.564;2022-12-05T20:23:57;3.30;99.90
4647;DHT22;2336;47.822;7.564;2022-12-05T20:26:27;3.20;99.90
4647;DHT22;2336;47.822;7.564;2022-12-05T20:28:55;3.30;99.90
4647;DHT22;2336;47.822;7.564;2022-12-05T20:31:25;3.30;99.90
4647;DHT22;2336;47.822;7.564;2022-12-05T20:33:53;3.30;99.90
4647;DHT22;2336;47.822;7.564;2022-12-05T20:36:23;3.30;99.90
4647;DHT22;2336;47.822;7.564;2022-12-05T20:38:54;3.30;99.90
4647;DHT22;2336;47.822;7.564;2022-12-05T20:41:21;3.30;99.90
4647;DHT22;2336;47.822;7.564;2022-12-05T20:43:52;3.30;99.90
4647;DHT22;2336;47.822;7.564;2022-12-05T20:46:19;3.30;99.90
4647;DHT22;2336;47.822;7.564;2022-12-05T20:48:47;3.40;99.90
4647;DHT22;2336;47.822;7.564;2022-12-05T20:51:15;3.50;99.90
4647;DHT22;2336;47.822;7.564;2022-12-05T20:53:44;3.50;99.90
4647;DHT22;2336;47.822;7.564;2022-12-05T20:56:13;3.60;99.90
4647;DHT22;2336;47.822;7.564;2022-12-05T20:58:40;3.60;99.90
4647;DHT22;2336;47.822;7.564;2022-12-05T21:01:09;3.50;99.90
4647;DHT22;2336;47.822;7.564;2022-12-05T21:03:39;3.60;99.90
4647;DHT22;2336;47.822;7.564;2022-12-05T21:06:06;3.60;99.90
4647;DHT22;2336;47.822;7.564;2022-12-05T21:08:33;3.60;99.90
4647;DHT22;2336;47.822;7.564;2022-12-05T21:11:01;3.70;99.90
4647;DHT22;2336;47.822;7.564;2022-12-05T21:13:28;3.70;99.90
4647;DHT22;2336;47.822;7.564;2022-12-05T21:15:55;3.70;99.90
4647;DHT22;2336;47.822;7.564;2022-12-05T21:18:22;3.70;99.90
4647;DHT22;2336;47.822;7.564;2022-12-05T21:21:00;3.70;99.90
4647;DHT22;2336;47.822;7.564;2022-12-05T21:23:27;3.70;99.90
4647;DHT22;2336;47.822;7.564;2022-12-05T21:25:54;3.70;99.90
4647;DHT22;2336;47.822;7.564;2022-12-05T21:28:22;3.70;99.90
4647;DHT22;2336;47.822;7.564;2022-12-05T21:30:49;3.70;99.90
